sensor_id;sensor_type;location;lat;lon;timestamp;pressure;altitude;pressure_sealevel;temperature;humidity
38716;BME280;24833;49.324;8.694;2022-07-10T00:01:32;100462.59;;;19.13;48.67
38716;BME280;24833;49.324;8.694;2022-07-10T00:03:59;100463.66;;;19.12;48.46
38716;BME280;24833;49.324;8.694;2022-07-10T00:06:26;100457.66;;;19.10;48.71
38716;BME280;24833;49.324;8.694;2022-07-10T00:08:53;100458.94;;;19.07;48.16
38716;BME280;24833;49.324;8.694;2022-07-10T00:11:22;100454.81;;;19.04;48.80
38716;BME280;24833;49.324;8.694;2022-07-10T00:13:49;100454.47;;;19.01;48.25
38716;BME280;24833;49.324;8.694;2022-07-10T00:16:16;100458.69;;;18.97;48.71
38716;BME280;24833;49.324;8.694;2022-07-10T00:18:43;100456.22;;;18.95;48.85
38716;BME280;24833;49.324;8.694;2022-07-10T00:21:10;100460.44;;;18.91;48.56
38716;BME280;24833;49.324;8.694;2022-07-10T00:23:37;100458.22;;;18.88;48.57
38716;BME280;24833;49.324;8.694;2022-07-10T00:26:04;100456.78;;;18.86;48.96
38716;BME280;24833;49.324;8.694;2022-07-10T00:28:31;100457.25;;;18.83;48.78
38716;BME280;24833;49.324;8.694;2022-07-10T00:30:58;100464.81;;;18.81;49.11
38716;BME280;24833;49.324;8.694;2022-07-10T00:33:25;100460.06;;;18.76;49.46
38716;BME280;24833;49.324;8.694;2022-07-10T00:35:52;100456.16;;;18.72;48.94
38716;BME280;24833;49.324;8.694;2022-07-10T00:38:19;100465.00;;;18.67;48.87
38716;BME280;24833;49.324;8.694;2022-07-10T00:40:46;100464.59;;;18.64;49.73
38716;BME280;24833;49.324;8.694;2022-07-10T00:43:13;100458.84;;;18.60;50.45
38716;BME280;24833;49.324;8.694;2022-07-10T00:45:40;100464.69;;;18.57;49.47
38716;BME280;24833;49.324;8.694;2022-07-10T00:48:07;100464.34;;;18.54;49.67
38716;BME280;24833;49.324;8.694;2022-07-10T00:50:36;100462.91;;;18.51;49.40
38716;BME280;24833;49.324;8.694;2022-07-10T00:53:03;100468.78;;;18.48;49.26
38716;BME280;24833;49.324;8.694;2022-07-10T00:55:32;100462.81;;;18.46;49.71
38716;BME280;24833;49.324;8.694;2022-07-10T00:58:01;100447.84;;;18.43;49.30
38716;BME280;24833;49.324;8.694;2022-07-10T01:00:28;100453.72;;;18.40;49.46
38716;BME280;24833;49.324;8.694;2022-07-10T01:02:56;100451.22;;;18.39;49.61
38716;BME280;24833;49.324;8.694;2022-07-10T01:05:23;100450.06;;;18.35;49.38
38716;BME280;24833;49.324;8.694;2022-07-10T01:07:50;100455.91;;;18.32;49.50
38716;BME280;24833;49.324;8.694;2022-07-10T01:10:17;100459.66;;;18.31;49.82
38716;BME280;24833;49.324;8.694;2022-07-10T01:12:44;100460.13;;;18.28;49.84
38716;BME280;24833;49.324;8.694;2022-07-10T01:15:12;100454.34;;;18.24;49.54
38716;BME280;24833;49.324;8.694;2022-07-10T01:17:40;100452.94;;;18.21;50.37
38716;BME280;24833;49.324;8.694;2022-07-10T01:20:09;100456.09;;;18.18;49.74
38716;BME280;24833;49.324;8.694;2022-07-10T01:22:37;100468.78;;;18.18;49.70
38716;BME280;24833;49.324;8.694;2022-07-10T01:25:05;100465.25;;;18.17;49.75
38716;BME280;24833;49.324;8.694;2022-07-10T01:27:33;100461.97;;;18.15;49.66
38716;BME280;24833;49.324;8.694;2022-07-10T01:30:00;100458.88;;;18.12;49.98
38716;BME280;24833;49.324;8.694;2022-07-10T01:32:36;100457.47;;;18.09;49.58
38716;BME280;24833;49.324;8.694;2022-07-10T01:35:05;100454.59;;;18.04;49.81
38716;BME280;24833;49.324;8.694;2022-07-10T01:37:32;100457.78;;;18.01;50.24
38716;BME280;24833;49.324;8.694;2022-07-10T01:39:59;100453.03;;;17.96;50.20
38716;BME280;24833;49.324;8.694;2022-07-10T01:42:26;100456.41;;;17.92;50.62
38716;BME280;24833;49.324;8.694;2022-07-10T01:44:53;100453.59;;;17.87;50.28
38716;BME280;24833;49.324;8.694;2022-07-10T01:47:20;100464.03;;;17.83;51.20
38716;BME280;24833;49.324;8.694;2022-07-10T01:49:52;100467.38;;;17.79;51.52
38716;BME280;24833;49.324;8.694;2022-07-10T01:52:20;100475.38;;;17.74;51.67
38716;BME280;24833;49.324;8.694;2022-07-10T01:54:48;100474.13;;;17.69;51.10
38716;BME280;24833;49.324;8.694;2022-07-10T01:57:16;100484.75;;;17.64;50.46
38716;BME280;24833;49.324;8.694;2022-07-10T01:59:43;100483.34;;;17.62;51.12
38716;BME280;24833;49.324;8.694;2022-07-10T02:02:10;100486.28;;;17.60;51.70
38716;BME280;24833;49.324;8.694;2022-07-10T02:04:37;100483.81;;;17.59;51.43
38716;BME280;24833;49.324;8.694;2022-07-10T02:07:17;100486.72;;;17.57;50.85
38716;BME280;24833;49.324;8.694;2022-07-10T02:09:45;100490.47;;;17.56;51.98
38716;BME280;24833;49.324;8.694;2022-07-10T02:12:14;100486.34;;;17.54;51.02
38716;BME280;24833;49.324;8.694;2022-07-10T02:14:41;100492.81;;;17.53;51.57
38716;BME280;24833;49.324;8.694;2022-07-10T02:17:09;100495.94;;;17.50;51.12
38716;BME280;24833;49.324;8.694;2022-07-10T02:19:36;100488.06;;;17.48;50.84
38716;BME280;24833;49.324;8.694;2022-07-10T02:22:03;100499.91;;;17.47;51.04
38716;BME280;24833;49.324;8.694;2022-07-10T02:24:30;100495.56;;;17.46;51.17
38716;BME280;24833;49.324;8.694;2022-07-10T02:26:57;100500.34;;;17.44;51.06
38716;BME280;24833;49.324;8.694;2022-07-10T02:29:24;100498.94;;;17.41;51.05
38716;BME280;24833;49.324;8.694;2022-07-10T02:31:52;100492.13;;;17.39;51.42
38716;BME280;24833;49.324;8.694;2022-07-10T02:34:19;100497.72;;;17.37;50.92
38716;BME280;24833;49.324;8.694;2022-07-10T02:36:46;100491.72;;;17.35;52.61
38716;BME280;24833;49.324;8.694;2022-07-10T02:39:13;100500.47;;;17.31;52.16
38716;BME280;24833;49.324;8.694;2022-07-10T02:41:40;100501.97;;;17.27;53.05
38716;BME280;24833;49.324;8.694;2022-07-10T02:44:08;100493.72;;;17.22;53.85
38716;BME280;24833;49.324;8.694;2022-07-10T02:46:35;100492.50;;;17.17;53.22
38716;BME280;24833;49.324;8.694;2022-07-10T02:49:02;100508.31;;;17.14;55.60
38716;BME280;24833;49.324;8.694;2022-07-10T02:51:30;100507.91;;;17.10;54.01
38716;BME280;24833;49.324;8.694;2022-07-10T02:53:57;100510.47;;;17.05;53.15
38716;BME280;24833;49.324;8.694;2022-07-10T02:56:25;100510.91;;;17.02;54.22
38716;BME280;24833;49.324;8.694;2022-07-10T02:58:52;100501.56;;;16.98;53.67
38716;BME280;24833;49.324;8.694;2022-07-10T03:01:19;100511.78;;;16.96;54.73
38716;BME280;24833;49.324;8.694;2022-07-10T03:03:46;100506.00;;;16.93;54.79
38716;BME280;24833;49.324;8.694;2022-07-10T03:06:13;100508.06;;;16.91;54.39
38716;BME280;24833;49.324;8.694;2022-07-10T03:08:40;100501.25;;;16.88;55.33
38716;BME280;24833;49.324;8.694;2022-07-10T03:11:09;100503.34;;;16.86;54.75
38716;BME280;24833;49.324;8.694;2022-07-10T03:13:36;100509.16;;;16.83;55.94
38716;BME280;24833;49.324;8.694;2022-07-10T03:16:03;100510.44;;;16.80;55.49
38716;BME280;24833;49.324;8.694;2022-07-10T03:18:30;100506.28;;;16.78;54.71
38716;BME280;24833;49.324;8.694;2022-07-10T03:20:57;100512.72;;;16.77;54.28
38716;BME280;24833;49.324;8.694;2022-07-10T03:23:24;100509.44;;;16.75;53.59
38716;BME280;24833;49.324;8.694;2022-07-10T03:25:52;100510.47;;;16.74;54.35
38716;BME280;24833;49.324;8.694;2022-07-10T03:28:21;100509.44;;;16.75;55.17
38716;BME280;24833;49.324;8.694;2022-07-10T03:30:48;100508.84;;;16.73;56.00
38716;BME280;24833;49.324;8.694;2022-07-10T03:33:15;100502.81;;;16.71;54.67
38716;BME280;24833;49.324;8.694;2022-07-10T03:35:42;100511.09;;;16.69;54.77
38716;BME280;24833;49.324;8.694;2022-07-10T03:38:09;100511.31;;;16.68;55.14
38716;BME280;24833;49.324;8.694;2022-07-10T03:40:36;100508.63;;;16.68;54.47
38716;BME280;24833;49.324;8.694;2022-07-10T03:43:03;100511.53;;;16.66;54.05
38716;BME280;24833;49.324;8.694;2022-07-10T03:45:30;100516.94;;;16.66;53.53
38716;BME280;24833;49.324;8.694;2022-07-10T03:47:57;100516.94;;;16.66;53.77
38716;BME280;24833;49.324;8.694;2022-07-10T03:50:24;100514.00;;;16.68;54.19
38716;BME280;24833;49.324;8.694;2022-07-10T03:52:51;100516.50;;;16.69;53.71
38716;BME280;24833;49.324;8.694;2022-07-10T03:55:18;100517.13;;;16.71;54.59
38716;BME280;24833;49.324;8.694;2022-07-10T03:57:45;100523.16;;;16.73;53.64
38716;BME280;24833;49.324;8.694;2022-07-10T04:00:25;100516.47;;;16.76;53.87
38716;BME280;24833;49.324;8.694;2022-07-10T04:03:02;100516.47;;;16.76;53.74
38716;BME280;24833;49.324;8.694;2022-07-10T04:05:30;100522.69;;;16.76;53.71
38716;BME280;24833;49.324;8.694;2022-07-10T04:07:58;100522.69;;;16.76;53.27
38716;BME280;24833;49.324;8.694;2022-07-10T04:10:28;100529.97;;;16.76;54.09
38716;BME280;24833;49.324;8.694;2022-07-10T04:12:56;100527.50;;;16.74;54.59
38716;BME280;24833;49.324;8.694;2022-07-10T04:15:24;100524.38;;;16.71;57.03
38716;BME280;24833;49.324;8.694;2022-07-10T04:17:51;100525.22;;;16.65;58.32
38716;BME280;24833;49.324;8.694;2022-07-10T04:20:19;100509.31;;;16.56;56.71
38716;BME280;24833;49.324;8.694;2022-07-10T04:22:46;100520.94;;;16.50;56.79
38716;BME280;24833;49.324;8.694;2022-07-10T04:25:13;100520.78;;;16.45;57.09
38716;BME280;24833;49.324;8.694;2022-07-10T04:27:41;100515.00;;;16.42;55.53
38716;BME280;24833;49.324;8.694;2022-07-10T04:30:08;100521.66;;;16.39;55.54
38716;BME280;24833;49.324;8.694;2022-07-10T04:32:35;100521.00;;;16.37;55.45
38716;BME280;24833;49.324;8.694;2022-07-10T04:35:04;100524.53;;;16.38;55.25
38716;BME280;24833;49.324;8.694;2022-07-10T04:37:31;100516.44;;;16.38;54.71
38716;BME280;24833;49.324;8.694;2022-07-10T04:39:58;100523.72;;;16.37;55.74
38716;BME280;24833;49.324;8.694;2022-07-10T04:42:25;100528.06;;;16.38;56.46
38716;BME280;24833;49.324;8.694;2022-07-10T04:44:53;100531.59;;;16.39;54.61
38716;BME280;24833;49.324;8.694;2022-07-10T04:47:20;100529.75;;;16.39;54.57
38716;BME280;24833;49.324;8.694;2022-07-10T04:49:47;100532.22;;;16.41;54.50
38716;BME280;24833;49.324;8.694;2022-07-10T04:52:14;100521.22;;;16.42;54.71
38716;BME280;24833;49.324;8.694;2022-07-10T04:54:42;100533.63;;;16.43;55.09
38716;BME280;24833;49.324;8.694;2022-07-10T04:57:09;100539.03;;;16.43;55.48
38716;BME280;24833;49.324;8.694;2022-07-10T04:59:36;100536.34;;;16.43;54.98
38716;BME280;24833;49.324;8.694;2022-07-10T05:02:03;100529.50;;;16.41;57.32
38716;BME280;24833;49.324;8.694;2022-07-10T05:04:30;100531.59;;;16.39;55.88
38716;BME280;24833;49.324;8.694;2022-07-10T05:06:57;100531.59;;;16.39;56.42
38716;BME280;24833;49.324;8.694;2022-07-10T05:09:24;100529.09;;;16.37;56.18
38716;BME280;24833;49.324;8.694;2022-07-10T05:11:51;100526.41;;;16.37;55.74
38716;BME280;24833;49.324;8.694;2022-07-10T05:14:18;100538.22;;;16.36;57.47
38716;BME280;24833;49.324;8.694;2022-07-10T05:16:45;100538.00;;;16.38;55.80
38716;BME280;24833;49.324;8.694;2022-07-10T05:19:12;100544.41;;;16.43;56.05
38716;BME280;24833;49.324;8.694;2022-07-10T05:21:39;100546.88;;;16.51;55.96
38716;BME280;24833;49.324;8.694;2022-07-10T05:24:06;100552.84;;;16.60;57.49
38716;BME280;24833;49.324;8.694;2022-07-10T05:26:33;100560.50;;;16.70;58.14
38716;BME280;24833;49.324;8.694;2022-07-10T05:29:00;100556.34;;;16.74;58.16
38716;BME280;24833;49.324;8.694;2022-07-10T05:31:27;100560.25;;;16.78;57.92
38716;BME280;24833;49.324;8.694;2022-07-10T05:33:54;100553.81;;;16.79;57.80
38716;BME280;24833;49.324;8.694;2022-07-10T05:36:35;100550.69;;;16.82;59.13
38716;BME280;24833;49.324;8.694;2022-07-10T05:41:02;100546.50;;;16.86;59.05
38716;BME280;24833;49.324;8.694;2022-07-10T05:43:29;100548.53;;;16.91;60.08
38716;BME280;24833;49.324;8.694;2022-07-10T05:45:56;100555.78;;;16.97;59.27
38716;BME280;24833;49.324;8.694;2022-07-10T05:48:24;100568.63;;;17.01;59.15
38716;BME280;24833;49.324;8.694;2022-07-10T05:50:52;100565.28;;;17.06;59.11
38716;BME280;24833;49.324;8.694;2022-07-10T05:53:19;100569.81;;;17.12;58.69
38716;BME280;24833;49.324;8.694;2022-07-10T05:55:47;100563.50;;;17.18;58.44
38716;BME280;24833;49.324;8.694;2022-07-10T05:58:16;100576.13;;;17.24;59.37
38716;BME280;24833;49.324;8.694;2022-07-10T06:00:43;100575.03;;;17.32;59.74
38716;BME280;24833;49.324;8.694;2022-07-10T06:03:11;100576.41;;;17.41;58.71
38716;BME280;24833;49.324;8.694;2022-07-10T06:05:38;100581.53;;;17.49;57.91
38716;BME280;24833;49.324;8.694;2022-07-10T06:08:05;100580.19;;;17.58;57.68
38716;BME280;24833;49.324;8.694;2022-07-10T06:10:32;100576.63;;;17.64;57.63
38716;BME280;24833;49.324;8.694;2022-07-10T06:12:59;100578.03;;;17.74;58.37
38716;BME280;24833;49.324;8.694;2022-07-10T06:15:26;100571.28;;;17.83;57.60
38716;BME280;24833;49.324;8.694;2022-07-10T06:17:57;100576.63;;;17.89;57.33
38716;BME280;24833;49.324;8.694;2022-07-10T06:20:27;100573.91;;;17.89;57.07
38716;BME280;24833;49.324;8.694;2022-07-10T06:22:55;100579.97;;;17.85;57.17
38716;BME280;24833;49.324;8.694;2022-07-10T06:25:22;100583.38;;;17.80;56.35
38716;BME280;24833;49.324;8.694;2022-07-10T06:27:49;100590.50;;;17.75;57.07
38716;BME280;24833;49.324;8.694;2022-07-10T06:30:16;100593.81;;;17.70;57.19
38716;BME280;24833;49.324;8.694;2022-07-10T06:32:43;100589.28;;;17.64;57.34
38716;BME280;24833;49.324;8.694;2022-07-10T06:35:11;100596.22;;;17.60;57.04
38716;BME280;24833;49.324;8.694;2022-07-10T06:37:38;100597.03;;;17.60;56.81
38716;BME280;24833;49.324;8.694;2022-07-10T06:40:06;100601.66;;;17.78;57.38
38716;BME280;24833;49.324;8.694;2022-07-10T06:42:33;100596.38;;;18.08;56.58
38716;BME280;24833;49.324;8.694;2022-07-10T06:45:01;100593.22;;;18.30;56.56
38716;BME280;24833;49.324;8.694;2022-07-10T06:47:28;100589.28;;;18.62;56.29
38716;BME280;24833;49.324;8.694;2022-07-10T06:50:14;100587.84;;;19.08;55.81
38716;BME280;24833;49.324;8.694;2022-07-10T06:52:41;100583.00;;;19.40;55.08
38716;BME280;24833;49.324;8.694;2022-07-10T06:55:08;100584.56;;;19.95;54.05
38716;BME280;24833;49.324;8.694;2022-07-10T06:57:38;100585.47;;;20.12;54.48
38716;BME280;24833;49.324;8.694;2022-07-10T07:00:06;100581.25;;;20.68;53.22
38716;BME280;24833;49.324;8.694;2022-07-10T07:02:34;100594.28;;;21.00;52.22
38716;BME280;24833;49.324;8.694;2022-07-10T07:05:01;100591.59;;;21.00;52.55
38716;BME280;24833;49.324;8.694;2022-07-10T07:07:28;100588.53;;;20.96;52.46
38716;BME280;24833;49.324;8.694;2022-07-10T07:09:56;100593.25;;;21.01;52.67
38716;BME280;24833;49.324;8.694;2022-07-10T07:12:23;100588.34;;;21.14;52.50
38716;BME280;24833;49.324;8.694;2022-07-10T07:14:50;100594.09;;;21.18;52.29
38716;BME280;24833;49.324;8.694;2022-07-10T07:17:17;100598.16;;;21.32;52.10
38716;BME280;24833;49.324;8.694;2022-07-10T07:20:01;100600.41;;;21.52;50.82
38716;BME280;24833;49.324;8.694;2022-07-10T07:22:47;100598.94;;;21.61;50.10
38716;BME280;24833;49.324;8.694;2022-07-10T07:25:32;100599.75;;;21.62;50.86
38716;BME280;24833;49.324;8.694;2022-07-10T07:27:59;100604.19;;;21.68;51.19
38716;BME280;24833;49.324;8.694;2022-07-10T07:30:27;100602.06;;;21.70;50.46
38716;BME280;24833;49.324;8.694;2022-07-10T07:32:54;100602.63;;;21.72;50.14
38716;BME280;24833;49.324;8.694;2022-07-10T07:35:21;100604.34;;;21.78;49.79
38716;BME280;24833;49.324;8.694;2022-07-10T07:37:50;100600.97;;;21.88;47.78
38716;BME280;24833;49.324;8.694;2022-07-10T07:40:22;100608.88;;;21.89;47.32
38716;BME280;24833;49.324;8.694;2022-07-10T07:42:51;100607.47;;;21.87;47.25
38716;BME280;24833;49.324;8.694;2022-07-10T07:45:21;100604.69;;;21.82;47.29
38716;BME280;24833;49.324;8.694;2022-07-10T07:47:54;100607.66;;;21.80;47.09
38716;BME280;24833;49.324;8.694;2022-07-10T07:50:32;100608.47;;;21.81;47.35
38716;BME280;24833;49.324;8.694;2022-07-10T07:53:00;100612.25;;;21.80;47.07
38716;BME280;24833;49.324;8.694;2022-07-10T07:55:30;100609.88;;;21.83;46.95
38716;BME280;24833;49.324;8.694;2022-07-10T07:57:57;100605.50;;;21.82;46.66
38716;BME280;24833;49.324;8.694;2022-07-10T08:00:27;100606.88;;;21.85;46.76
38716;BME280;24833;49.324;8.694;2022-07-10T08:02:57;100605.59;;;21.87;46.15
38716;BME280;24833;49.324;8.694;2022-07-10T08:05:25;100604.34;;;21.78;45.25
38716;BME280;24833;49.324;8.694;2022-07-10T08:07:59;100608.56;;;21.69;46.19
38716;BME280;24833;49.324;8.694;2022-07-10T08:10:31;100600.06;;;21.65;46.12
38716;BME280;24833;49.324;8.694;2022-07-10T08:12:58;100597.84;;;21.62;46.08
38716;BME280;24833;49.324;8.694;2022-07-10T08:15:25;100596.53;;;21.65;46.58
38716;BME280;24833;49.324;8.694;2022-07-10T08:17:56;100600.16;;;21.70;46.69
38716;BME280;24833;49.324;8.694;2022-07-10T08:20:35;100598.41;;;21.81;46.68
38716;BME280;24833;49.324;8.694;2022-07-10T08:23:02;100596.41;;;21.93;46.35
38716;BME280;24833;49.324;8.694;2022-07-10T08:25:34;100596.00;;;22.01;46.38
38716;BME280;24833;49.324;8.694;2022-07-10T08:28:08;100586.84;;;22.08;45.84
38716;BME280;24833;49.324;8.694;2022-07-10T08:30:38;100582.28;;;22.13;45.74
38716;BME280;24833;49.324;8.694;2022-07-10T08:33:05;100578.34;;;22.21;45.45
38716;BME280;24833;49.324;8.694;2022-07-10T08:35:33;100575.16;;;22.29;44.96
38716;BME280;24833;49.324;8.694;2022-07-10T08:37:59;100583.13;;;22.36;45.59
38716;BME280;24833;49.324;8.694;2022-07-10T08:40:34;100575.88;;;22.41;44.65
38716;BME280;24833;49.324;8.694;2022-07-10T08:43:04;100570.97;;;22.43;44.48
38716;BME280;24833;49.324;8.694;2022-07-10T08:45:32;100581.81;;;22.38;43.18
38716;BME280;24833;49.324;8.694;2022-07-10T08:48:04;100572.44;;;22.29;42.79
38716;BME280;24833;49.324;8.694;2022-07-10T08:50:38;100582.75;;;22.27;43.75
38716;BME280;24833;49.324;8.694;2022-07-10T08:53:12;100581.34;;;22.24;43.76
38716;BME280;24833;49.324;8.694;2022-07-10T08:55:39;100582.50;;;22.28;44.73
38716;BME280;24833;49.324;8.694;2022-07-10T08:58:08;100575.22;;;22.34;44.12
38716;BME280;24833;49.324;8.694;2022-07-10T09:00:37;100582.06;;;22.37;43.26
38716;BME280;24833;49.324;8.694;2022-07-10T09:03:04;100581.25;;;22.36;42.75
38716;BME280;24833;49.324;8.694;2022-07-10T09:05:31;100580.16;;;22.37;42.79
38716;BME280;24833;49.324;8.694;2022-07-10T09:07:58;100579.06;;;22.38;43.16
38716;BME280;24833;49.324;8.694;2022-07-10T09:10:29;100577.19;;;22.39;42.05
38716;BME280;24833;49.324;8.694;2022-07-10T09:13:00;100582.81;;;22.32;42.62
38716;BME280;24833;49.324;8.694;2022-07-10T09:15:31;100584.97;;;22.30;42.08
38716;BME280;24833;49.324;8.694;2022-07-10T09:18:04;100584.81;;;22.20;42.17
38716;BME280;24833;49.324;8.694;2022-07-10T09:20:39;100576.09;;;22.18;42.52
38716;BME280;24833;49.324;8.694;2022-07-10T09:23:23;100579.06;;;22.16;42.04
38716;BME280;24833;49.324;8.694;2022-07-10T09:25:53;100574.47;;;22.17;42.52
38716;BME280;24833;49.324;8.694;2022-07-10T09:28:21;100570.66;;;22.18;42.10
38716;BME280;24833;49.324;8.694;2022-07-10T09:30:49;100573.44;;;22.23;41.47
38716;BME280;24833;49.324;8.694;2022-07-10T09:33:24;100582.63;;;22.17;40.93
38716;BME280;24833;49.324;8.694;2022-07-10T09:36:11;100587.50;;;22.15;41.17
38716;BME280;24833;49.324;8.694;2022-07-10T09:41:13;100592.34;;;22.13;42.36
38716;BME280;24833;49.324;8.694;2022-07-10T09:44:05;100584.53;;;22.16;40.53
38716;BME280;24833;49.324;8.694;2022-07-10T09:46:39;100585.16;;;22.23;41.63
38716;BME280;24833;49.324;8.694;2022-07-10T09:49:12;100581.09;;;22.26;41.13
38716;BME280;24833;49.324;8.694;2022-07-10T09:51:45;100574.59;;;22.27;41.19
38716;BME280;24833;49.324;8.694;2022-07-10T09:54:16;100579.53;;;22.30;40.90
38716;BME280;24833;49.324;8.694;2022-07-10T09:56:46;100574.91;;;22.30;41.47
38716;BME280;24833;49.324;8.694;2022-07-10T09:59:19;100576.88;;;22.35;41.20
38716;BME280;24833;49.324;8.694;2022-07-10T10:01:51;100581.31;;;22.41;40.67
38716;BME280;24833;49.324;8.694;2022-07-10T10:04:22;100584.13;;;22.51;40.92
38716;BME280;24833;49.324;8.694;2022-07-10T10:06:57;100575.50;;;22.60;40.45
38716;BME280;24833;49.324;8.694;2022-07-10T10:09:41;100577.81;;;22.68;40.63
38716;BME280;24833;49.324;8.694;2022-07-10T10:12:21;100563.72;;;22.76;40.56
38716;BME280;24833;49.324;8.694;2022-07-10T10:14:52;100570.53;;;22.78;39.60
38716;BME280;24833;49.324;8.694;2022-07-10T10:17:21;100568.41;;;22.80;40.11
38716;BME280;24833;49.324;8.694;2022-07-10T10:19:51;100568.25;;;22.87;40.62
38716;BME280;24833;49.324;8.694;2022-07-10T10:22:40;100567.50;;;22.97;39.68
38716;BME280;24833;49.324;8.694;2022-07-10T10:25:07;100568.31;;;22.97;39.51
38716;BME280;24833;49.324;8.694;2022-07-10T10:27:37;100561.22;;;22.96;40.31
38716;BME280;24833;49.324;8.694;2022-07-10T10:30:05;100556.88;;;23.00;40.56
38716;BME280;24833;49.324;8.694;2022-07-10T10:32:32;100559.66;;;23.05;39.89
38716;BME280;24833;49.324;8.694;2022-07-10T10:34:59;100553.75;;;23.14;40.33
38716;BME280;24833;49.324;8.694;2022-07-10T10:39:55;100553.59;;;22.98;38.41
38716;BME280;24833;49.324;8.694;2022-07-10T10:42:43;100544.34;;;22.99;39.29
38716;BME280;24833;49.324;8.694;2022-07-10T10:45:37;100544.97;;;23.06;38.72
38716;BME280;24833;49.324;8.694;2022-07-10T10:48:15;100554.06;;;23.17;38.97
38716;BME280;24833;49.324;8.694;2022-07-10T10:51:03;100562.34;;;23.27;39.04
38716;BME280;24833;49.324;8.694;2022-07-10T10:53:30;100555.81;;;23.33;38.22
38716;BME280;24833;49.324;8.694;2022-07-10T10:58:46;100556.56;;;23.56;38.11
38716;BME280;24833;49.324;8.694;2022-07-10T11:01:25;100553.63;;;23.62;38.23
38716;BME280;24833;49.324;8.694;2022-07-10T11:04:13;100544.41;;;23.69;38.32
38716;BME280;24833;49.324;8.694;2022-07-10T11:06:59;100553.00;;;23.55;35.77
38716;BME280;24833;49.324;8.694;2022-07-10T11:09:31;100550.78;;;23.47;37.35
38716;BME280;24833;49.324;8.694;2022-07-10T11:12:10;100547.47;;;23.45;37.83
38716;BME280;24833;49.324;8.694;2022-07-10T11:14:40;100549.41;;;23.50;37.74
38716;BME280;24833;49.324;8.694;2022-07-10T11:17:09;100555.72;;;23.55;38.07
38716;BME280;24833;49.324;8.694;2022-07-10T11:19:37;100550.06;;;23.62;37.88
38716;BME280;24833;49.324;8.694;2022-07-10T11:28:10;100546.13;;;23.85;36.93
38716;BME280;24833;49.324;8.694;2022-07-10T11:30:53;100527.03;;;23.90;36.08
38716;BME280;24833;49.324;8.694;2022-07-10T11:33:22;100535.78;;;23.92;37.38
38716;BME280;24833;49.324;8.694;2022-07-10T11:35:53;100538.00;;;24.00;37.43
38716;BME280;24833;49.324;8.694;2022-07-10T11:38:22;100535.84;;;24.02;36.76
38716;BME280;24833;49.324;8.694;2022-07-10T11:40:50;100529.84;;;24.05;36.06
38716;BME280;24833;49.324;8.694;2022-07-10T11:43:19;100530.69;;;24.11;35.57
38716;BME280;24833;49.324;8.694;2022-07-10T11:45:51;100537.78;;;24.12;36.53
38716;BME280;24833;49.324;8.694;2022-07-10T11:48:21;100531.00;;;24.19;35.43
38716;BME280;24833;49.324;8.694;2022-07-10T11:50:50;100534.59;;;24.30;35.86
38716;BME280;24833;49.324;8.694;2022-07-10T11:53:25;100533.59;;;24.41;35.31
38716;BME280;24833;49.324;8.694;2022-07-10T11:55:53;100529.78;;;24.53;35.97
38716;BME280;24833;49.324;8.694;2022-07-10T11:58:20;100523.50;;;24.57;35.75
38716;BME280;24833;49.324;8.694;2022-07-10T12:00:58;100523.53;;;24.62;35.98
38716;BME280;24833;49.324;8.694;2022-07-10T12:03:26;100523.25;;;24.69;35.31
38716;BME280;24833;49.324;8.694;2022-07-10T12:06:02;100530.63;;;24.73;34.92
38716;BME280;24833;49.324;8.694;2022-07-10T12:08:42;100520.81;;;24.83;35.61
38716;BME280;24833;49.324;8.694;2022-07-10T12:11:19;100520.28;;;24.91;35.50
38716;BME280;24833;49.324;8.694;2022-07-10T12:13:49;100513.16;;;25.00;34.24
38716;BME280;24833;49.324;8.694;2022-07-10T12:16:17;100530.66;;;24.94;34.63
38716;BME280;24833;49.324;8.694;2022-07-10T12:18:46;100537.78;;;24.90;34.17
38716;BME280;24833;49.324;8.694;2022-07-10T12:21:14;100524.38;;;24.88;34.46
38716;BME280;24833;49.324;8.694;2022-07-10T12:23:44;100521.91;;;24.92;34.78
38716;BME280;24833;49.324;8.694;2022-07-10T12:26:12;100522.50;;;25.04;35.01
38716;BME280;24833;49.324;8.694;2022-07-10T12:28:53;100521.66;;;24.98;33.04
38716;BME280;24833;49.324;8.694;2022-07-10T12:31:26;100512.63;;;24.93;33.46
38716;BME280;24833;49.324;8.694;2022-07-10T12:33:58;100510.72;;;25.04;34.10
38716;BME280;24833;49.324;8.694;2022-07-10T12:36:52;100524.16;;;25.15;33.89
38716;BME280;24833;49.324;8.694;2022-07-10T12:39:24;100522.25;;;25.16;34.80
38716;BME280;24833;49.324;8.694;2022-07-10T12:42:03;100513.72;;;25.27;32.79
38716;BME280;24833;49.324;8.694;2022-07-10T12:44:38;100517.56;;;25.37;33.92
38716;BME280;24833;49.324;8.694;2022-07-10T12:47:11;100521.41;;;25.36;33.94
38716;BME280;24833;49.324;8.694;2022-07-10T12:50:02;100523.03;;;25.42;34.76
38716;BME280;24833;49.324;8.694;2022-07-10T12:52:35;100514.31;;;25.35;34.04
38716;BME280;24833;49.324;8.694;2022-07-10T12:55:20;100516.22;;;25.29;33.42
38716;BME280;24833;49.324;8.694;2022-07-10T12:58:03;100517.03;;;25.35;34.49
38716;BME280;24833;49.324;8.694;2022-07-10T13:00:32;100514.03;;;25.41;34.60
38716;BME280;24833;49.324;8.694;2022-07-10T13:03:08;100508.53;;;25.51;34.62
38716;BME280;24833;49.324;8.694;2022-07-10T13:05:41;100506.31;;;25.64;34.40
38716;BME280;24833;49.324;8.694;2022-07-10T13:10:51;100505.47;;;25.73;34.22
38716;BME280;24833;49.324;8.694;2022-07-10T13:13:19;100512.28;;;25.81;34.10
38716;BME280;24833;49.324;8.694;2022-07-10T13:15:47;100512.56;;;25.90;34.05
38716;BME280;24833;49.324;8.694;2022-07-10T13:18:19;100512.00;;;25.88;34.60
38716;BME280;24833;49.324;8.694;2022-07-10T13:20:49;100522.16;;;25.82;34.24
38716;BME280;24833;49.324;8.694;2022-07-10T13:23:25;100513.13;;;25.71;33.96